sensor_id;sensor_type;location;lat;lon;timestamp;P1;durP1;ratioP1;P2;durP2;ratioP2
10442;SDS011;5269;51.146;16.986;2022-07-29T00:00:07;4.85;;;3.08;;
10442;SDS011;5269;51.146;16.986;2022-07-29T00:02:35;4.28;;;3.00;;
10442;SDS011;5269;51.146;16.986;2022-07-29T00:05:04;3.10;;;2.80;;
10442;SDS011;5269;51.146;16.986;2022-07-29T00:07:32;3.08;;;2.78;;
10442;SDS011;5269;51.146;16.986;2022-07-29T00:09:59;3.20;;;2.90;;
10442;SDS011;5269;51.146;16.986;2022-07-29T00:12:25;6.60;;;2.80;;
10442;SDS011;5269;51.146;16.986;2022-07-29T00:14:53;5.57;;;3.22;;
10442;SDS011;5269;51.146;16.986;2022-07-29T00:17:20;4.10;;;3.03;;
10442;SDS011;5269;51.146;16.986;2022-07-29T00:19:47;4.65;;;3.30;;
10442;SDS011;5269;51.146;16.986;2022-07-29T00:22:16;5.38;;;4.07;;
10442;SDS011;5269;51.146;16.986;2022-07-29T00:24:43;4.18;;;3.55;;
10442;SDS011;5269;51.146;16.986;2022-07-29T00:27:10;3.50;;;3.20;;
10442;SDS011;5269;51.146;16.986;2022-07-29T00:29:36;6.50;;;3.10;;
10442;SDS011;5269;51.146;16.986;2022-07-29T00:32:04;4.47;;;3.42;;
10442;SDS011;5269;51.146;16.986;2022-07-29T00:34:31;4.57;;;2.95;;
10442;SDS011;5269;51.146;16.986;2022-07-29T00:37:16;6.88;;;2.88;;
10442;SDS011;5269;51.146;16.986;2022-07-29T00:39:43;3.30;;;2.75;;
10442;SDS011;5269;51.146;16.986;2022-07-29T00:42:15;3.15;;;2.85;;
10442;SDS011;5269;51.146;16.986;2022-07-29T00:44:42;4.15;;;2.65;;
10442;SDS011;5269;51.146;16.986;2022-07-29T00:47:10;4.13;;;3.03;;
10442;SDS011;5269;51.146;16.986;2022-07-29T00:49:38;7.00;;;2.90;;
10442;SDS011;5269;51.146;16.986;2022-07-29T00:52:06;4.45;;;3.00;;
10442;SDS011;5269;51.146;16.986;2022-07-29T00:54:42;4.88;;;3.75;;
10442;SDS011;5269;51.146;16.986;2022-07-29T00:57:11;5.22;;;3.53;;
10442;SDS011;5269;51.146;16.986;2022-07-29T00:59:39;3.78;;;3.05;;
10442;SDS011;5269;51.146;16.986;2022-07-29T01:02:06;4.82;;;3.08;;
10442;SDS011;5269;51.146;16.986;2022-07-29T01:04:33;6.30;;;2.90;;
10442;SDS011;5269;51.146;16.986;2022-07-29T01:07:00;5.30;;;3.13;;
10442;SDS011;5269;51.146;16.986;2022-07-29T01:09:28;5.95;;;2.90;;
10442;SDS011;5269;51.146;16.986;2022-07-29T01:11:58;3.63;;;2.67;;
10442;SDS011;5269;51.146;16.986;2022-07-29T01:14:26;3.08;;;2.78;;
10442;SDS011;5269;51.146;16.986;2022-07-29T01:16:55;4.22;;;3.17;;
10442;SDS011;5269;51.146;16.986;2022-07-29T01:19:42;3.78;;;3.00;;
10442;SDS011;5269;51.146;16.986;2022-07-29T01:22:18;4.10;;;2.90;;
10442;SDS011;5269;51.146;16.986;2022-07-29T01:25:02;4.47;;;2.80;;
10442;SDS011;5269;51.146;16.986;2022-07-29T01:27:51;3.92;;;2.78;;
10442;SDS011;5269;51.146;16.986;2022-07-29T01:30:35;4.82;;;2.72;;
10442;SDS011;5269;51.146;16.986;2022-07-29T01:33:06;3.85;;;2.70;;
10442;SDS011;5269;51.146;16.986;2022-07-29T01:36:04;3.40;;;2.67;;
10442;SDS011;5269;51.146;16.986;2022-07-29T01:38:35;5.50;;;2.92;;
10442;SDS011;5269;51.146;16.986;2022-07-29T01:41:06;5.07;;;3.05;;
10442;SDS011;5269;51.146;16.986;2022-07-29T01:43:39;5.85;;;3.13;;
10442;SDS011;5269;51.146;16.986;2022-07-29T01:46:11;6.60;;;3.30;;
10442;SDS011;5269;51.146;16.986;2022-07-29T01:48:45;5.78;;;3.15;;
10442;SDS011;5269;51.146;16.986;2022-07-29T01:51:16;5.28;;;2.80;;
10442;SDS011;5269;51.146;16.986;2022-07-29T01:53:47;6.38;;;2.88;;
10442;SDS011;5269;51.146;16.986;2022-07-29T01:56:20;3.20;;;2.90;;
10442;SDS011;5269;51.146;16.986;2022-07-29T01:58:49;6.20;;;2.83;;
10442;SDS011;5269;51.146;16.986;2022-07-29T02:01:19;3.95;;;3.05;;
10442;SDS011;5269;51.146;16.986;2022-07-29T02:03:48;2.92;;;2.70;;
10442;SDS011;5269;51.146;16.986;2022-07-29T02:06:19;3.40;;;2.80;;
10442;SDS011;5269;51.146;16.986;2022-07-29T02:08:48;3.70;;;3.10;;
10442;SDS011;5269;51.146;16.986;2022-07-29T02:11:17;5.90;;;3.00;;
10442;SDS011;5269;51.146;16.986;2022-07-29T02:13:44;6.70;;;3.50;;
10442;SDS011;5269;51.146;16.986;2022-07-29T02:16:13;3.65;;;3.15;;
10442;SDS011;5269;51.146;16.986;2022-07-29T02:18:44;3.03;;;2.70;;
10442;SDS011;5269;51.146;16.986;2022-07-29T02:21:15;3.55;;;2.88;;
10442;SDS011;5269;51.146;16.986;2022-07-29T02:23:48;4.05;;;2.95;;
10442;SDS011;5269;51.146;16.986;2022-07-29T02:26:18;3.17;;;2.88;;
10442;SDS011;5269;51.146;16.986;2022-07-29T02:28:47;6.85;;;3.10;;
10442;SDS011;5269;51.146;16.986;2022-07-29T02:31:16;4.18;;;3.10;;
10442;SDS011;5269;51.146;16.986;2022-07-29T02:33:48;4.07;;;2.90;;
10442;SDS011;5269;51.146;16.986;2022-07-29T02:36:17;3.33;;;3.03;;
10442;SDS011;5269;51.146;16.986;2022-07-29T02:38:47;6.18;;;3.05;;
10442;SDS011;5269;51.146;16.986;2022-07-29T02:41:22;4.38;;;2.97;;
10442;SDS011;5269;51.146;16.986;2022-07-29T02:43:53;3.88;;;2.97;;
10442;SDS011;5269;51.146;16.986;2022-07-29T02:46:25;7.45;;;3.30;;
10442;SDS011;5269;51.146;16.986;2022-07-29T02:48:59;4.88;;;3.10;;
10442;SDS011;5269;51.146;16.986;2022-07-29T02:51:32;5.47;;;3.67;;
10442;SDS011;5269;51.146;16.986;2022-07-29T02:54:05;5.00;;;3.20;;
10442;SDS011;5269;51.146;16.986;2022-07-29T02:56:34;5.43;;;3.22;;
10442;SDS011;5269;51.146;16.986;2022-07-29T02:59:03;4.40;;;3.25;;
10442;SDS011;5269;51.146;16.986;2022-07-29T03:01:34;4.25;;;3.60;;
10442;SDS011;5269;51.146;16.986;2022-07-29T03:04:06;4.05;;;3.67;;
10442;SDS011;5269;51.146;16.986;2022-07-29T03:06:34;3.92;;;3.25;;
10442;SDS011;5269;51.146;16.986;2022-07-29T03:09:03;6.53;;;3.60;;
10442;SDS011;5269;51.146;16.986;2022-07-29T03:11:32;6.13;;;3.63;;
10442;SDS011;5269;51.146;16.986;2022-07-29T03:14:00;9.38;;;3.88;;
10442;SDS011;5269;51.146;16.986;2022-07-29T03:16:28;4.38;;;3.88;;
10442;SDS011;5269;51.146;16.986;2022-07-29T03:22:29;5.78;;;3.67;;
10442;SDS011;5269;51.146;16.986;2022-07-29T03:24:57;5.13;;;3.67;;
10442;SDS011;5269;51.146;16.986;2022-07-29T03:27:24;4.22;;;3.80;;
10442;SDS011;5269;51.146;16.986;2022-07-29T03:29:51;7.28;;;3.20;;
10442;SDS011;5269;51.146;16.986;2022-07-29T03:32:17;4.60;;;3.50;;
10442;SDS011;5269;51.146;16.986;2022-07-29T03:34:44;5.63;;;4.20;;
10442;SDS011;5269;51.146;16.986;2022-07-29T03:37:11;5.10;;;3.83;;
10442;SDS011;5269;51.146;16.986;2022-07-29T03:39:40;5.78;;;4.63;;
10442;SDS011;5269;51.146;16.986;2022-07-29T03:42:10;6.28;;;3.88;;
10442;SDS011;5269;51.146;16.986;2022-07-29T03:44:40;6.43;;;4.20;;
10442;SDS011;5269;51.146;16.986;2022-07-29T03:47:09;5.43;;;3.75;;
10442;SDS011;5269;51.146;16.986;2022-07-29T03:49:36;5.70;;;4.20;;
10442;SDS011;5269;51.146;16.986;2022-07-29T03:52:05;4.80;;;4.07;;
10442;SDS011;5269;51.146;16.986;2022-07-29T03:54:32;6.93;;;4.10;;
10442;SDS011;5269;51.146;16.986;2022-07-29T03:57:01;8.13;;;4.47;;
10442;SDS011;5269;51.146;16.986;2022-07-29T03:59:29;4.80;;;4.32;;
10442;SDS011;5269;51.146;16.986;2022-07-29T04:01:58;5.28;;;4.45;;
10442;SDS011;5269;51.146;16.986;2022-07-29T04:04:27;7.78;;;4.20;;
10442;SDS011;5269;51.146;16.986;2022-07-29T04:06:54;8.57;;;3.92;;
10442;SDS011;5269;51.146;16.986;2022-07-29T04:09:21;4.68;;;4.28;;
10442;SDS011;5269;51.146;16.986;2022-07-29T04:11:47;6.50;;;4.05;;
10442;SDS011;5269;51.146;16.986;2022-07-29T04:14:16;11.38;;;4.25;;
10442;SDS011;5269;51.146;16.986;2022-07-29T04:16:43;4.85;;;4.00;;
10442;SDS011;5269;51.146;16.986;2022-07-29T04:19:10;5.35;;;4.20;;
10442;SDS011;5269;51.146;16.986;2022-07-29T04:21:37;5.45;;;4.22;;
10442;SDS011;5269;51.146;16.986;2022-07-29T04:24:04;7.10;;;4.05;;
10442;SDS011;5269;51.146;16.986;2022-07-29T04:26:32;5.50;;;3.90;;
10442;SDS011;5269;51.146;16.986;2022-07-29T04:28:59;4.20;;;3.75;;
10442;SDS011;5269;51.146;16.986;2022-07-29T04:31:28;6.70;;;3.83;;
10442;SDS011;5269;51.146;16.986;2022-07-29T04:33:55;4.35;;;3.90;;
10442;SDS011;5269;51.146;16.986;2022-07-29T04:36:22;6.32;;;4.30;;
10442;SDS011;5269;51.146;16.986;2022-07-29T04:38:49;6.75;;;4.32;;
10442;SDS011;5269;51.146;16.986;2022-07-29T04:41:16;5.40;;;4.15;;
10442;SDS011;5269;51.146;16.986;2022-07-29T04:43:43;11.73;;;4.53;;
10442;SDS011;5269;51.146;16.986;2022-07-29T04:46:10;7.45;;;4.20;;
10442;SDS011;5269;51.146;16.986;2022-07-29T04:48:38;6.20;;;4.28;;
10442;SDS011;5269;51.146;16.986;2022-07-29T04:51:05;7.93;;;4.05;;
10442;SDS011;5269;51.146;16.986;2022-07-29T04:53:32;6.97;;;4.75;;
10442;SDS011;5269;51.146;16.986;2022-07-29T04:56:01;6.03;;;3.85;;
10442;SDS011;5269;51.146;16.986;2022-07-29T04:58:28;12.25;;;4.20;;
10442;SDS011;5269;51.146;16.986;2022-07-29T05:00:55;6.30;;;3.75;;
10442;SDS011;5269;51.146;16.986;2022-07-29T05:03:22;7.93;;;4.10;;
10442;SDS011;5269;51.146;16.986;2022-07-29T05:05:50;7.45;;;4.03;;
10442;SDS011;5269;51.146;16.986;2022-07-29T05:08:17;7.20;;;4.03;;
10442;SDS011;5269;51.146;16.986;2022-07-29T05:10:44;6.45;;;4.20;;
10442;SDS011;5269;51.146;16.986;2022-07-29T05:13:12;4.53;;;3.47;;
10442;SDS011;5269;51.146;16.986;2022-07-29T05:15:38;9.18;;;4.20;;
10442;SDS011;5269;51.146;16.986;2022-07-29T05:18:05;7.00;;;4.55;;
10442;SDS011;5269;51.146;16.986;2022-07-29T05:20:32;6.43;;;4.15;;
10442;SDS011;5269;51.146;16.986;2022-07-29T05:23:01;7.45;;;4.07;;
10442;SDS011;5269;51.146;16.986;2022-07-29T05:25:29;8.55;;;4.07;;
10442;SDS011;5269;51.146;16.986;2022-07-29T05:27:56;17.75;;;3.67;;
10442;SDS011;5269;51.146;16.986;2022-07-29T05:30:23;6.90;;;4.07;;
10442;SDS011;5269;51.146;16.986;2022-07-29T05:32:50;6.93;;;4.10;;
10442;SDS011;5269;51.146;16.986;2022-07-29T05:35:17;7.93;;;4.03;;
10442;SDS011;5269;51.146;16.986;2022-07-29T05:37:44;9.07;;;4.13;;
10442;SDS011;5269;51.146;16.986;2022-07-29T05:40:13;7.80;;;4.50;;
10442;SDS011;5269;51.146;16.986;2022-07-29T05:42:40;4.05;;;3.38;;
10442;SDS011;5269;51.146;16.986;2022-07-29T05:45:07;6.90;;;3.90;;
10442;SDS011;5269;51.146;16.986;2022-07-29T05:47:34;5.07;;;3.45;;
10442;SDS011;5269;51.146;16.986;2022-07-29T05:50:01;6.75;;;3.65;;
10442;SDS011;5269;51.146;16.986;2022-07-29T05:52:29;6.47;;;3.63;;
10442;SDS011;5269;51.146;16.986;2022-07-29T05:54:56;7.53;;;3.35;;
10442;SDS011;5269;51.146;16.986;2022-07-29T05:57:24;6.40;;;3.50;;
10442;SDS011;5269;51.146;16.986;2022-07-29T05:59:51;4.97;;;4.00;;
10442;SDS011;5269;51.146;16.986;2022-07-29T06:02:19;4.78;;;3.13;;
10442;SDS011;5269;51.146;16.986;2022-07-29T06:04:46;7.38;;;3.50;;
10442;SDS011;5269;51.146;16.986;2022-07-29T06:07:13;3.83;;;3.20;;
10442;SDS011;5269;51.146;16.986;2022-07-29T06:09:41;7.03;;;3.25;;
10442;SDS011;5269;51.146;16.986;2022-07-29T06:12:08;3.92;;;3.15;;
10442;SDS011;5269;51.146;16.986;2022-07-29T06:14:37;6.55;;;3.20;;
10442;SDS011;5269;51.146;16.986;2022-07-29T06:17:04;4.88;;;2.80;;
10442;SDS011;5269;51.146;16.986;2022-07-29T06:19:34;3.75;;;3.45;;
10442;SDS011;5269;51.146;16.986;2022-07-29T06:22:01;4.60;;;3.53;;
10442;SDS011;5269;51.146;16.986;2022-07-29T06:24:29;5.53;;;3.17;;
10442;SDS011;5269;51.146;16.986;2022-07-29T06:26:56;6.25;;;3.28;;
10442;SDS011;5269;51.146;16.986;2022-07-29T06:29:22;5.47;;;3.42;;
10442;SDS011;5269;51.146;16.986;2022-07-29T06:31:51;8.65;;;3.47;;
10442;SDS011;5269;51.146;16.986;2022-07-29T06:34:18;5.32;;;3.58;;
10442;SDS011;5269;51.146;16.986;2022-07-29T06:36:45;7.70;;;3.20;;
10442;SDS011;5269;51.146;16.986;2022-07-29T06:39:12;7.18;;;3.30;;
10442;SDS011;5269;51.146;16.986;2022-07-29T06:41:39;3.80;;;3.20;;
10442;SDS011;5269;51.146;16.986;2022-07-29T06:44:06;4.65;;;3.13;;
10442;SDS011;5269;51.146;16.986;2022-07-29T06:46:33;5.78;;;3.30;;
10442;SDS011;5269;51.146;16.986;2022-07-29T06:49:01;4.43;;;3.13;;
10442;SDS011;5269;51.146;16.986;2022-07-29T06:51:28;3.40;;;3.10;;
10442;SDS011;5269;51.146;16.986;2022-07-29T06:53:55;4.60;;;3.45;;
10442;SDS011;5269;51.146;16.986;2022-07-29T06:56:23;7.18;;;3.38;;
10442;SDS011;5269;51.146;16.986;2022-07-29T06:58:50;5.45;;;3.67;;
10442;SDS011;5269;51.146;16.986;2022-07-29T07:01:17;5.85;;;3.25;;
10442;SDS011;5269;51.146;16.986;2022-07-29T07:03:44;5.78;;;3.33;;
10442;SDS011;5269;51.146;16.986;2022-07-29T07:06:13;5.28;;;3.78;;
10442;SDS011;5269;51.146;16.986;2022-07-29T07:08:40;5.75;;;3.38;;
10442;SDS011;5269;51.146;16.986;2022-07-29T07:11:07;6.07;;;3.15;;
10442;SDS011;5269;51.146;16.986;2022-07-29T07:13:34;4.68;;;3.58;;
10442;SDS011;5269;51.146;16.986;2022-07-29T07:16:01;4.20;;;3.72;;
10442;SDS011;5269;51.146;16.986;2022-07-29T07:18:29;9.05;;;3.60;;
10442;SDS011;5269;51.146;16.986;2022-07-29T07:20:56;5.15;;;3.60;;
10442;SDS011;5269;51.146;16.986;2022-07-29T07:23:25;7.93;;;3.45;;
10442;SDS011;5269;51.146;16.986;2022-07-29T07:25:51;5.55;;;3.30;;
10442;SDS011;5269;51.146;16.986;2022-07-29T07:28:18;5.88;;;3.30;;
10442;SDS011;5269;51.146;16.986;2022-07-29T07:30:46;6.90;;;3.10;;
10442;SDS011;5269;51.146;16.986;2022-07-29T07:33:13;8.95;;;3.53;;
10442;SDS011;5269;51.146;16.986;2022-07-29T07:35:40;6.10;;;3.20;;
10442;SDS011;5269;51.146;16.986;2022-07-29T07:38:07;4.97;;;3.28;;
10442;SDS011;5269;51.146;16.986;2022-07-29T07:40:35;3.10;;;2.80;;
10442;SDS011;5269;51.146;16.986;2022-07-29T07:43:02;3.80;;;3.20;;
10442;SDS011;5269;51.146;16.986;2022-07-29T07:45:30;4.55;;;3.15;;
10442;SDS011;5269;51.146;16.986;2022-07-29T07:47:58;3.97;;;3.30;;
10442;SDS011;5269;51.146;16.986;2022-07-29T07:50:25;5.05;;;3.15;;
10442;SDS011;5269;51.146;16.986;2022-07-29T07:52:53;6.45;;;3.33;;
10442;SDS011;5269;51.146;16.986;2022-07-29T07:55:23;8.25;;;3.50;;
10442;SDS011;5269;51.146;16.986;2022-07-29T07:57:52;9.23;;;3.60;;
10442;SDS011;5269;51.146;16.986;2022-07-29T08:00:19;5.28;;;3.65;;
10442;SDS011;5269;51.146;16.986;2022-07-29T08:02:46;8.88;;;3.10;;
10442;SDS011;5269;51.146;16.986;2022-07-29T08:05:13;3.75;;;3.20;;
10442;SDS011;5269;51.146;16.986;2022-07-29T08:07:42;11.20;;;3.53;;
10442;SDS011;5269;51.146;16.986;2022-07-29T08:10:10;5.45;;;3.65;;
10442;SDS011;5269;51.146;16.986;2022-07-29T08:12:38;3.50;;;3.20;;
10442;SDS011;5269;51.146;16.986;2022-07-29T08:15:07;4.15;;;2.83;;
10442;SDS011;5269;51.146;16.986;2022-07-29T08:17:34;4.75;;;3.10;;
10442;SDS011;5269;51.146;16.986;2022-07-29T08:20:02;3.95;;;3.60;;
10442;SDS011;5269;51.146;16.986;2022-07-29T08:22:30;6.50;;;3.20;;
10442;SDS011;5269;51.146;16.986;2022-07-29T08:24:56;3.50;;;3.17;;
10442;SDS011;5269;51.146;16.986;2022-07-29T08:27:23;3.60;;;3.20;;
10442;SDS011;5269;51.146;16.986;2022-07-29T08:29:51;3.22;;;2.97;;
10442;SDS011;5269;51.146;16.986;2022-07-29T08:32:22;3.50;;;3.20;;
10442;SDS011;5269;51.146;16.986;2022-07-29T08:34:49;3.40;;;3.10;;
10442;SDS011;5269;51.146;16.986;2022-07-29T08:37:16;6.13;;;3.28;;
10442;SDS011;5269;51.146;16.986;2022-07-29T08:39:43;9.70;;;3.85;;
10442;SDS011;5269;51.146;16.986;2022-07-29T08:42:10;4.55;;;3.25;;
10442;SDS011;5269;51.146;16.986;2022-07-29T08:44:37;4.35;;;3.35;;
10442;SDS011;5269;51.146;16.986;2022-07-29T08:47:05;3.72;;;2.88;;
10442;SDS011;5269;51.146;16.986;2022-07-29T08:49:34;3.65;;;3.00;;
10442;SDS011;5269;51.146;16.986;2022-07-29T08:52:02;3.95;;;3.45;;
10442;SDS011;5269;51.146;16.986;2022-07-29T08:54:29;3.53;;;3.20;;
10442;SDS011;5269;51.146;16.986;2022-07-29T08:56:56;6.22;;;3.40;;
10442;SDS011;5269;51.146;16.986;2022-07-29T08:59:24;3.58;;;3.17;;
10442;SDS011;5269;51.146;16.986;2022-07-29T09:01:53;5.40;;;3.40;;
10442;SDS011;5269;51.146;16.986;2022-07-29T09:04:21;3.95;;;2.78;;
10442;SDS011;5269;51.146;16.986;2022-07-29T09:06:52;4.22;;;3.17;;
10442;SDS011;5269;51.146;16.986;2022-07-29T09:09:24;6.40;;;3.70;;
10442;SDS011;5269;51.146;16.986;2022-07-29T09:11:51;6.38;;;3.08;;
10442;SDS011;5269;51.146;16.986;2022-07-29T09:14:19;5.63;;;3.17;;
10442;SDS011;5269;51.146;16.986;2022-07-29T09:16:50;4.25;;;3.13;;
10442;SDS011;5269;51.146;16.986;2022-07-29T09:19:25;5.78;;;3.25;;
10442;SDS011;5269;51.146;16.986;2022-07-29T09:21:56;5.65;;;3.10;;
10442;SDS011;5269;51.146;16.986;2022-07-29T09:24:24;3.65;;;3.35;;
10442;SDS011;5269;51.146;16.986;2022-07-29T09:26:52;5.47;;;3.25;;
10442;SDS011;5269;51.146;16.986;2022-07-29T09:29:21;5.63;;;3.22;;
10442;SDS011;5269;51.146;16.986;2022-07-29T09:31:51;7.53;;;3.50;;
10442;SDS011;5269;51.146;16.986;2022-07-29T09:34:21;4.82;;;3.55;;
10442;SDS011;5269;51.146;16.986;2022-07-29T09:36:51;7.53;;;3.42;;
10442;SDS011;5269;51.146;16.986;2022-07-29T09:39:28;5.43;;;3.05;;
10442;SDS011;5269;51.146;16.986;2022-07-29T09:41:56;3.97;;;2.78;;
10442;SDS011;5269;51.146;16.986;2022-07-29T09:44:25;5.70;;;3.15;;
10442;SDS011;5269;51.146;16.986;2022-07-29T09:46:55;6.90;;;3.30;;
10442;SDS011;5269;51.146;16.986;2022-07-29T09:49:31;5.10;;;3.30;;
10442;SDS011;5269;51.146;16.986;2022-07-29T09:52:03;5.38;;;3.25;;
10442;SDS011;5269;51.146;16.986;2022-07-29T09:54:33;5.63;;;3.83;;
10442;SDS011;5269;51.146;16.986;2022-07-29T09:57:03;6.13;;;2.78;;
10442;SDS011;5269;51.146;16.986;2022-07-29T09:59:31;3.83;;;2.90;;
10442;SDS011;5269;51.146;16.986;2022-07-29T10:01:59;4.03;;;3.22;;
10442;SDS011;5269;51.146;16.986;2022-07-29T10:04:38;6.32;;;3.53;;
10442;SDS011;5269;51.146;16.986;2022-07-29T10:07:06;7.45;;;3.75;;
10442;SDS011;5269;51.146;16.986;2022-07-29T10:09:37;5.50;;;3.22;;
10442;SDS011;5269;51.146;16.986;2022-07-29T10:12:08;3.15;;;2.88;;
10442;SDS011;5269;51.146;16.986;2022-07-29T10:14:38;4.60;;;3.33;;
10442;SDS011;5269;51.146;16.986;2022-07-29T10:17:07;6.13;;;3.00;;
10442;SDS011;5269;51.146;16.986;2022-07-29T10:19:35;3.50;;;3.00;;
10442;SDS011;5269;51.146;16.986;2022-07-29T10:22:04;3.70;;;3.00;;
10442;SDS011;5269;51.146;16.986;2022-07-29T10:24:32;9.10;;;3.72;;
10442;SDS011;5269;51.146;16.986;2022-07-29T10:27:02;3.50;;;3.20;;
10442;SDS011;5269;51.146;16.986;2022-07-29T10:29:30;4.82;;;3.20;;
10442;SDS011;5269;51.146;16.986;2022-07-29T10:32:04;5.22;;;2.80;;
10442;SDS011;5269;51.146;16.986;2022-07-29T10:34:51;6.55;;;3.50;;
10442;SDS011;5269;51.146;16.986;2022-07-29T10:37:35;5.72;;;3.67;;
10442;SDS011;5269;51.146;16.986;2022-07-29T10:40:10;3.80;;;3.38;;
10442;SDS011;5269;51.146;16.986;2022-07-29T10:43:05;3.05;;;2.80;;
10442;SDS011;5269;51.146;16.986;2022-07-29T10:45:41;5.25;;;2.88;;
10442;SDS011;5269;51.146;16.986;2022-07-29T10:48:08;7.63;;;3.40;;
10442;SDS011;5269;51.146;16.986;2022-07-29T10:50:57;5.72;;;3.05;;
10442;SDS011;5269;51.146;16.986;2022-07-29T10:53:46;5.63;;;3.50;;
10442;SDS011;5269;51.146;16.986;2022-07-29T10:56:24;3.28;;;3.08;;
10442;SDS011;5269;51.146;16.986;2022-07-29T11:01:53;4.22;;;3.80;;
10442;SDS011;5269;51.146;16.986;2022-07-29T11:07:28;5.00;;;3.10;;
10442;SDS011;5269;51.146;16.986;2022-07-29T11:12:48;6.32;;;3.50;;
10442;SDS011;5269;51.146;16.986;2022-07-29T11:15:18;5.80;;;4.10;;
10442;SDS011;5269;51.146;16.986;2022-07-29T11:20:37;5.60;;;3.85;;
10442;SDS011;5269;51.146;16.986;2022-07-29T11:23:22;7.45;;;3.35;;
10442;SDS011;5269;51.146;16.986;2022-07-29T11:28:55;7.07;;;3.95;;
10442;SDS011;5269;51.146;16.986;2022-07-29T11:31:35;4.55;;;3.55;;
10442;SDS011;5269;51.146;16.986;2022-07-29T11:34:20;4.10;;;3.30;;
10442;SDS011;5269;51.146;16.986;2022-07-29T11:39:41;5.05;;;4.10;;
10442;SDS011;5269;51.146;16.986;2022-07-29T11:45:06;5.97;;;4.10;;
10442;SDS011;5269;51.146;16.986;2022-07-29T11:47:40;5.68;;;4.03;;
10442;SDS011;5269;51.146;16.986;2022-07-29T11:50:13;6.30;;;3.75;;
10442;SDS011;5269;51.146;16.986;2022-07-29T11:52:41;5.30;;;3.58;;
10442;SDS011;5269;51.146;16.986;2022-07-29T11:55:11;7.63;;;3.55;;
10442;SDS011;5269;51.146;16.986;2022-07-29T11:57:46;4.55;;;3.30;;
10442;SDS011;5269;51.146;16.986;2022-07-29T12:00:25;4.93;;;3.63;;
10442;SDS011;5269;51.146;16.986;2022-07-29T12:02:55;3.97;;;3.38;;
10442;SDS011;5269;51.146;16.986;2022-07-29T12:05:34;8.90;;;3.65;;
10442;SDS011;5269;51.146;16.986;2022-07-29T12:08:10;4.78;;;3.55;;
10442;SDS011;5269;51.146;16.986;2022-07-29T12:10:39;4.13;;;3.72;;
10442;SDS011;5269;51.146;16.986;2022-07-29T12:13:07;4.85;;;3.80;;
10442;SDS011;5269;51.146;16.986;2022-07-29T12:15:35;6.00;;;3.60;;
10442;SDS011;5269;51.146;16.986;2022-07-29T12:18:13;4.45;;;3.45;;
10442;SDS011;5269;51.146;16.986;2022-07-29T12:20:41;9.65;;;3.67;;
10442;SDS011;5269;51.146;16.986;2022-07-29T12:23:08;5.63;;;3.95;;
10442;SDS011;5269;51.146;16.986;2022-07-29T12:25:37;4.45;;;4.05;;
10442;SDS011;5269;51.146;16.986;2022-07-29T12:28:05;6.50;;;3.80;;
10442;SDS011;5269;51.146;16.986;2022-07-29T12:30:34;4.07;;;3.28;;
10442;SDS011;5269;51.146;16.986;2022-07-29T12:33:09;4.57;;;4.22;;
10442;SDS011;5269;51.146;16.986;2022-07-29T12:35:39;3.70;;;3.30;;
10442;SDS011;5269;51.146;16.986;2022-07-29T12:38:06;4.75;;;3.40;;
10442;SDS011;5269;51.146;16.986;2022-07-29T12:40:35;4.47;;;3.78;;
10442;SDS011;5269;51.146;16.986;2022-07-29T12:43:06;7.00;;;3.28;;
10442;SDS011;5269;51.146;16.986;2022-07-29T12:45:37;6.32;;;3.55;;
10442;SDS011;5269;51.146;16.986;2022-07-29T12:48:06;4.32;;;3.47;;
10442;SDS011;5269;51.146;16.986;2022-07-29T12:50:34;8.25;;;4.60;;
10442;SDS011;5269;51.146;16.986;2022-07-29T12:53:10;6.38;;;3.78;;
10442;SDS011;5269;51.146;16.986;2022-07-29T12:55:39;6.13;;;4.10;;
10442;SDS011;5269;51.146;16.986;2022-07-29T12:58:13;7.95;;;4.60;;
10442;SDS011;5269;51.146;16.986;2022-07-29T13:01:03;6.47;;;4.13;;
10442;SDS011;5269;51.146;16.986;2022-07-29T13:03:46;7.65;;;4.25;;
10442;SDS011;5269;51.146;16.986;2022-07-29T13:06:36;8.55;;;4.07;;
10442;SDS011;5269;51.146;16.986;2022-07-29T13:09:07;4.75;;;3.55;;
10442;SDS011;5269;51.146;16.986;2022-07-29T13:11:36;12.18;;;3.65;;
10442;SDS011;5269;51.146;16.986;2022-07-29T13:14:08;5.53;;;4.03;;
10442;SDS011;5269;51.146;16.986;2022-07-29T13:19:34;4.78;;;4.10;;
10442;SDS011;5269;51.146;16.986;2022-07-29T13:22:10;5.45;;;4.00;;
10442;SDS011;5269;51.146;16.986;2022-07-29T13:24:48;4.78;;;4.35;;
10442;SDS011;5269;51.146;16.986;2022-07-29T13:27:26;6.05;;;5.10;;
10442;SDS011;5269;51.146;16.986;2022-07-29T13:29:59;5.53;;;4.28;;
10442;SDS011;5269;51.146;16.986;2022-07-29T13:32:29;5.93;;;4.00;;
10442;SDS011;5269;51.146;16.986;2022-07-29T13:38:00;4.28;;;3.83;;
10442;SDS011;5269;51.146;16.986;2022-07-29T13:40:29;4.32;;;3.80;;
10442;SDS011;5269;51.146;16.986;2022-07-29T13:43:02;7.35;;;4.20;;
10442;SDS011;5269;51.146;16.986;2022-07-29T13:45:29;5.10;;;4.35;;
10442;SDS011;5269;51.146;16.986;2022-07-29T13:47:56;4.75;;;3.70;;
10442;SDS011;5269;51.146;16.986;2022-07-29T13:50:26;5.95;;;4.70;;
10442;SDS011;5269;51.146;16.986;2022-07-29T13:53:00;4.53;;;3.58;;
10442;SDS011;5269;51.146;16.986;2022-07-29T13:55:31;5.30;;;4.10;;
10442;SDS011;5269;51.146;16.986;2022-07-29T13:58:03;4.90;;;3.70;;
10442;SDS011;5269;51.146;16.986;2022-07-29T14:00:30;5.85;;;3.80;;
10442;SDS011;5269;51.146;16.986;2022-07-29T14:02:57;4.22;;;3.92;;
10442;SDS011;5269;51.146;16.986;2022-07-29T14:05:24;7.75;;;4.45;;
10442;SDS011;5269;51.146;16.986;2022-07-29T14:07:51;8.70;;;4.25;;
10442;SDS011;5269;51.146;16.986;2022-07-29T14:10:18;4.47;;;3.80;;
10442;SDS011;5269;51.146;16.986;2022-07-29T14:12:46;6.70;;;4.00;;
10442;SDS011;5269;51.146;16.986;2022-07-29T14:15:13;5.82;;;4.03;;
10442;SDS011;5269;51.146;16.986;2022-07-29T14:17:40;5.88;;;3.75;;
10442;SDS011;5269;51.146;16.986;2022-07-29T14:20:07;4.63;;;3.63;;
10442;SDS011;5269;51.146;16.986;2022-07-29T14:22:35;6.72;;;4.10;;
10442;SDS011;5269;51.146;16.986;2022-07-29T14:25:02;7.45;;;3.60;;
10442;SDS011;5269;51.146;16.986;2022-07-29T14:27:29;7.68;;;3.88;;
10442;SDS011;5269;51.146;16.986;2022-07-29T14:30:03;4.00;;;3.60;;
10442;SDS011;5269;51.146;16.986;2022-07-29T14:32:31;4.28;;;3.83;;
10442;SDS011;5269;51.146;16.986;2022-07-29T14:34:58;5.05;;;3.70;;
10442;SDS011;5269;51.146;16.986;2022-07-29T14:37:25;3.95;;;3.50;;
10442;SDS011;5269;51.146;16.986;2022-07-29T14:39:51;5.55;;;3.95;;
10442;SDS011;5269;51.146;16.986;2022-07-29T14:42:19;8.27;;;3.50;;
10442;SDS011;5269;51.146;16.986;2022-07-29T14:44:46;4.97;;;3.70;;
10442;SDS011;5269;51.146;16.986;2022-07-29T14:47:15;4.47;;;3.75;;
10442;SDS011;5269;51.146;16.986;2022-07-29T14:49:42;4.18;;;3.85;;
10442;SDS011;5269;51.146;16.986;2022-07-29T14:52:09;4.85;;;3.70;;
10442;SDS011;5269;51.146;16.986;2022-07-29T14:54:38;5.50;;;3.90;;
10442;SDS011;5269;51.146;16.986;2022-07-29T14:57:05;7.72;;;3.83;;
10442;SDS011;5269;51.146;16.986;2022-07-29T14:59:32;10.85;;;3.88;;
10442;SDS011;5269;51.146;16.986;2022-07-29T15:01:59;6.63;;;3.92;;
10442;SDS011;5269;51.146;16.986;2022-07-29T15:04:28;5.15;;;3.70;;
10442;SDS011;5269;51.146;16.986;2022-07-29T15:06:55;6.43;;;4.43;;
10442;SDS011;5269;51.146;16.986;2022-07-29T15:09:22;5.20;;;3.50;;
10442;SDS011;5269;51.146;16.986;2022-07-29T15:11:49;5.72;;;3.78;;
10442;SDS011;5269;51.146;16.986;2022-07-29T15:14:16;6.47;;;4.00;;
10442;SDS011;5269;51.146;16.986;2022-07-29T15:16:43;6.20;;;4.07;;
10442;SDS011;5269;51.146;16.986;2022-07-29T15:19:10;4.25;;;3.85;;
10442;SDS011;5269;51.146;16.986;2022-07-29T15:21:39;7.55;;;4.35;;
10442;SDS011;5269;51.146;16.986;2022-07-29T15:24:06;4.47;;;4.07;;
10442;SDS011;5269;51.146;16.986;2022-07-29T15:26:33;5.40;;;4.20;;
10442;SDS011;5269;51.146;16.986;2022-07-29T15:29:00;8.00;;;4.18;;
10442;SDS011;5269;51.146;16.986;2022-07-29T15:31:28;4.28;;;3.85;;